Terminal Aerodrome Forecast
Issued by NWS

Home | Current Version | Previous Version | Text Only | Print | Product List | Glossary On
Versions: 1 2 3 4 5 6 7 8 9 10 11 12 13 14
000
FTUS43 KEAX 011100
TAFSTJ
TAF
KSTJ 011136Z 0112/0212 14011KT P6SM VCSH OVC080
     FM011400 19010KT P6SM BKN050
     FM012200 VRB05KT P6SM VCTS BKN040CB
     FM020400 VRB03KT 3SM TSRA BR SCT025 OVC040CB=

USA.gov is the U.S. government's official web portal to all federal, state and local government web resources and services.